Data for 03/21/2007

Time Sea-Level Adjusted Pressure Absolute Pressure Temperature Relative Humidity Dew Point   
(mb) (inHg) (mb) (inHg) (C) (F) (%) (C) (F)
00:05 1012 29.88 841 24.83 3.7 38.7 58 -3.8 25.2
00:10 1012 29.88 841 24.83 3.7 38.7 57 -4 24.8
00:15 1012 29.88 841 24.83 3.5 38.3 59 -3.8 25.2
00:20 1012 29.88 841 24.83 3.6 38.4 57 -4.1 24.6
00:25 1012 29.88 842 24.86 3.7 38.7 58 -3.8 25.2
00:30 1012 29.88 842 24.86 3.7 38.7 58 -3.8 25.2
00:35 1012 29.88 842 24.86 3.7 38.6 58 -3.9 25.1
00:40 1012 29.88 842 24.86 3.6 38.4 57 -4.1 24.7
00:45 1012 29.88 842 24.86 3.4 38.2 58 -4 24.7
00:50 1012 29.88 842 24.86 3.4 38.1 58 -4 24.9
00:55 1012 29.88 842 24.86 3.4 38.1 58 -4 24.8
01:00 1012 29.88 842 24.86 3.4 38.1 59 -4 24.9
01:05 1012 29.88 842 24.86 3.3 37.9 60 -3.7 25.3
01:10 1012 29.88 842 24.86 3.2 37.7 59 -4.1 24.6
01:15 1012 29.88 842 24.86 3.2 37.8 58 -4.2 24.4
01:20 1012 29.88 842 24.86 3.2 37.8 58 -4.2 24.5
01:25 1012 29.88 842 24.86 3.2 37.8 59 -3.9 24.9
01:30 1012 29.88 842 24.86 3 37.5 60 -3.9 25
01:35 1012 29.88 842 24.86 3 37.4 60 -3.9 24.9
01:40 1012 29.88 842 24.86 3.1 37.5 61 -3.7 25.3
01:45 1012 29.88 842 24.86 3.1 37.6 59 -4.1 24.6
01:50 1013 29.91 842 24.86 3.1 37.5 59 -4.1 24.6
01:55 1013 29.91 842 24.86 3 37.5 60 -4 24.8
02:00 1013 29.91 842 24.86 2.9 37.2 60 -4 24.8
02:05 1013 29.91 842 24.86 2.8 37.1 56 -5 22.9
02:10 1013 29.91 842 24.86 2.9 37.3 56 -5.1 22.9
02:15 1013 29.91 842 24.86 3 37.4 55 -5.1 22.8
02:20 1013 29.91 842 24.86 3 37.3 55 -5.2 22.6
02:25 1013 29.91 842 24.86 2.8 37.1 56 -5 23.1
02:30 1013 29.91 842 24.86 2.8 37.1 57 -4.9 23.1
02:35 1013 29.91 842 24.86 2.8 37.1 57 -4.9 23.2
02:40 1013 29.91 842 24.86 2.8 37.1 57 -4.8 23.4
02:45 1013 29.91 842 24.86 2.6 36.7 55 -5.4 22.2
02:50 1013 29.91 842 24.86 2.6 36.7 54 -5.8 21.6
02:55 1013 29.91 842 24.86 2.6 36.6 55 -5.7 21.8
03:00 1013 29.91 842 24.86 2.5 36.5 54 -5.8 21.6
03:05 1013 29.91 843 24.89 2.5 36.4 55 -5.7 21.8
03:10 1013 29.91 843 24.89 2.4 36.3 55 -5.7 21.7
03:15 1013 29.91 843 24.89 2.4 36.3 56 -5.5 22.1
03:20 1014 29.94 843 24.89 2.4 36.3 57 -5.3 22.5
03:25 1014 29.94 843 24.89 2.3 36.2 57 -5.3 22.5
03:30 1014 29.94 843 24.89 2.4 36.3 57 -5.2 22.7
03:35 1014 29.94 843 24.89 2.4 36.3 58 -5.1 22.9
03:40 1014 29.94 843 24.89 2.3 36.1 61 -4.5 23.9
03:45 1014 29.94 843 24.89 2 35.5 64 -4.2 24.4
03:50 1014 29.94 843 24.89 1.8 35.2 65 -4.1 24.6
03:55 1014 29.94 843 24.89 1.8 35.3 63 -4.5 23.9
04:00 1013 29.91 843 24.89 1.9 35.4 62 -4.5 23.8
04:05 1013 29.91 843 24.89 1.9 35.5 63 -4.4 24.1
04:10 1014 29.94 843 24.89 2 35.5 62 -4.5 23.8
04:15 1014 29.94 843 24.89 1.9 35.4 62 -4.6 23.8
04:20 1014 29.94 843 24.89 1.8 35.3 62 -4.6 23.7
04:25 1014 29.94 843 24.89 1.8 35.3 63 -4.5 23.9
04:30 1014 29.94 843 24.89 1.8 35.2 63 -4.5 24
04:35 1014 29.94 843 24.89 1.7 35.1 63 -4.6 23.7
04:40 1014 29.94 843 24.89 1.7 35 62 -4.8 23.3
04:45 1014 29.94 843 24.89 1.7 35 61 -5.1 22.9
04:50 1014 29.94 843 24.89 1.7 35 60 -5.2 22.6
04:55 1014 29.94 843 24.89 1.7 35 61 -5.1 22.7
05:00 1014 29.94 843 24.89 1.6 35 61 -5.1 22.8
05:05 1014 29.94 843 24.89 1.6 34.8 63 -4.7 23.5
05:10 1014 29.94 843 24.89 1.5 34.7 65 -4.4 24
05:15 1014 29.94 843 24.89 1.3 34.4 64 -4.7 23.6
05:20 1014 29.94 843 24.89 1 33.8 65 -4.8 23.4
05:25 1014 29.94 844 24.92 1 33.9 64 -4.9 23.1
05:30 1014 29.94 844 24.92 1.2 34.2 62 -5.3 22.5
05:35 1014 29.94 844 24.92 1.3 34.4 63 -5 23
05:40 1015 29.97 844 24.92 1.4 34.4 62 -5 22.9
05:45 1015 29.97 844 24.92 1.3 34.3 59 -6 21.3
05:50 1015 29.97 844 24.92 1.3 34.4 57 -6.2 20.8
05:55 1015 29.97 844 24.92 1.3 34.4 56 -6.5 20.4
06:00 1015 29.97 844 24.92 1.3 34.4 55 -6.7 19.9
06:05 1015 29.97 844 24.92 1.3 34.4 56 -6.5 20.4
06:10 1015 29.97 844 24.92 1.3 34.4 54 -6.9 19.5
06:15 1015 29.97 844 24.92 1.2 34.2 56 -6.6 20.1
06:20 1015 29.97 844 24.92 1.2 34.2 55 -6.8 19.8
06:25 1015 29.97 844 24.92 1.2 34.1 55 -6.9 19.7
06:30 1015 29.97 844 24.92 1.1 34 56 -6.8 19.7
06:35 1015 29.97 844 24.92 1.1 34 55 -7 19.5
06:40 1015 29.97 844 24.92 1.1 33.9 56 -6.8 19.8
06:45 1015 29.97 845 24.95 1 33.8 56 -6.9 19.6
06:50 1015 29.97 845 24.95 0.9 33.6 55 -7.2 19.1
06:55 1015 29.97 845 24.95 0.9 33.6 55 -7.1 19.2
07:00 1015 29.97 845 24.95 0.9 33.6 54 -7.4 18.6
07:05 1016 30 845 24.95 0.9 33.6 54 -7.3 18.8
07:10 1016 30 845 24.95 1 33.7 55 -7 19.4
07:15 1016 30 845 24.95 0.9 33.6 56 -6.9 19.5
07:20 1016 30 845 24.95 0.8 33.4 59 -6.3 20.7
07:25 1016 30 845 24.95 0.7 33.3 60 -6.2 20.9
07:30 1016 30 845 24.95 0.5 33 61 -6.1 21.1
07:35 1016 30 845 24.95 0.7 33.3 60 -6.2 20.9
07:40 1016 30 845 24.95 0.7 33.3 60 -6.1 20.9
07:45 1016 30 845 24.95 0.6 33.1 61 -6.2 20.9
07:50 1016 30 845 24.95 0.6 33.2 60 -6.2 20.8
07:55 1016 30 845 24.95 0.5 32.9 60 -6.3 20.6
08:00 1016 30 845 24.95 0.5 32.9 59 -6.6 20.1
08:05 1016 30 845 24.95 0.5 32.9 59 -6.5 20.3
08:10 1016 30 845 24.95 0.6 33 58 -6.7 20
08:15 1016 30 846 24.98 0.6 33 58 -6.8 19.8
08:20 1016 30 846 24.98 0.8 33.4 56 -6.9 19.5
08:25 1016 30 846 24.98 1 33.8 56 -6.8 19.8
08:30 1016 30 846 24.98 0.6 33.1 56 -7.1 19.3
08:35 1017 30.03 846 24.98 0.1 32.3 59 -7 19.3
08:40 1017 30.03 846 24.98 0.2 32.3 59 -7 19.5
08:45 1016 30 846 24.98 0.2 32.4 58 -7.1 19.3
08:50 1017 30.03 846 24.98 0.2 32.3 57 -7.4 18.7
08:55 1017 30.03 846 24.98 0.4 32.7 57 -7.2 19
09:00 1017 30.03 846 24.98 0.9 33.5 55 -7.2 19
09:05 1017 30.03 846 24.98 1.3 34.4 51 -7.7 18.2
09:10 1017 30.03 846 24.98 1.1 34 53 -7.4 18.7
09:15 1017 30.03 846 24.98 1.2 34.2 52 -7.4 18.6
09:20 1017 30.03 846 24.98 1.5 34.7 54 -6.8 19.8
09:25 1017 30.03 846 24.98 1.9 35.4 52 -7.1 19.3
09:30 1017 30.03 846 24.98 2.3 36.1 49 -7.5 18.6
09:35 1017 30.03 846 24.98 1.8 35.3 51 -7.3 18.9
09:40 1017 30.03 846 24.98 1.9 35.5 47 -8.2 17.2
09:45 1017 30.03 846 24.98 2.9 37.3 45 -8 17.6
09:50 1017 30.03 846 24.98 3.7 38.6 41 -8.3 17.1
09:55 1017 30.03 846 24.98 3.5 38.3 42 -8.1 17.4
10:00 1017 30.03 847 25.01 3.9 39 40 -8.5 16.7
10:05 1017 30.03 847 25.01 3.7 38.6 41 -8.3 17
10:10 1017 30.03 847 25.01 3.8 38.8 40 -8.5 16.7
10:15 1017 30.03 847 25.01 4 39.1 40 -8.5 16.8
10:20 1018 30.06 847 25.01 3.7 38.7 42 -8.2 17.3
10:25 1018 30.06 847 25.01 3.8 38.8 41 -8.2 17.2
10:30 1018 30.06 847 25.01 4 39.3 41 -8.1 17.4
10:35 1018 30.06 847 25.01 4.5 40.1 40 -8.1 17.4
10:40 1018 30.06 847 25.01 4.1 39.4 40 -8.2 17.2
10:45 1018 30.06 847 25.01 4 39.2 41 -8.1 17.4
10:50 1018 30.06 847 25.01 3.9 39.1 40 -8.3 17
10:55 1018 30.06 847 25.01 4.3 39.7 40 -8.2 17.2
11:00 1018 30.06 847 25.01 4.6 40.3 38 -8.4 16.9
11:05 1018 30.06 847 25.01 4.8 40.7 37 -8.6 16.6
11:10 1018 30.06 847 25.01 5.1 41.1 37 -8.5 16.7
11:15 1018 30.06 847 25.01 4.9 40.9 37 -8.6 16.5
11:20 1018 30.06 847 25.01 4.3 39.8 38 -8.7 16.4
11:25 1018 30.06 847 25.01 4.5 40 37 -9.2 15.5
11:30 1018 30.06 847 25.01 5.4 41.7 34 -9.1 15.6
11:35 1018 30.06 847 25.01 5.2 41.4 35 -9 15.8
11:40 1018 30.06 847 25.01 5.2 41.4 36 -8.8 16.1
11:45 1018 30.06 847 25.01 5.8 42.4 34 -9.1 15.7
11:50 1018 30.06 847 25.01 5.8 42.4 34 -8.8 16.1
11:55 1017 30.03 847 25.01 5.9 42.6 35 -8.3 17
12:00 1017 30.03 847 25.01 6.3 43.3 35 -8.2 17.3
12:05 1017 30.03 847 25.01 6 42.8 34 -8.8 16.1
12:10 1017 30.03 847 25.01 6.3 43.4 34 -8.6 16.5
12:15 1017 30.03 847 25.01 6.1 42.9 34 -8.5 16.7
12:20 1017 30.03 846 24.98 6 42.8 34 -8.7 16.4
12:25 1017 30.03 847 25.01 6.7 44.1 33 -8.6 16.6
12:30 1017 30.03 846 24.98 6.3 43.4 34 -8.4 16.9
12:35 1017 30.03 847 25.01 6.9 44.3 33 -8.3 17
12:40 1017 30.03 847 25.01 7 44.7 33 -8.3 17
12:45 1017 30.03 847 25.01 6.8 44.3 33 -8.2 17.3
12:50 1017 30.03 847 25.01 6.9 44.3 33 -8.3 17.1
12:55 1017 30.03 847 25.01 6.6 43.9 35 -7.8 17.9
13:00 1017 30.03 847 25.01 6.9 44.5 33 -8.2 17.3
13:05 1017 30.03 847 25.01 7.7 45.8 30 -8.9 16.1
13:10 1017 30.03 847 25.01 7.5 45.6 31 -8.6 16.6
13:15 1017 30.03 846 24.98 7.7 45.9 30 -8.6 16.5
13:20 1017 30.03 846 24.98 7.8 46 30 -8.6 16.6
13:25 1017 30.03 846 24.98 8.2 46.7 30 -8.6 16.6
13:30 1017 30.03 846 24.98 8.3 46.9 30 -8.2 17.2
13:35 1017 30.03 846 24.98 8.3 46.9 30 -8.4 16.9
13:40 1017 30.03 846 24.98 7.9 46.1 31 -8.4 16.9
13:45 1017 30.03 846 24.98 7.3 45.1 31 -8.6 16.5
13:50 1017 30.03 846 24.98 8.2 46.8 29 -8.9 16
13:55 1017 30.03 846 24.98 8.3 46.9 30 -8.4 17
14:00 1017 30.03 846 24.98 8.5 47.4 30 -8.2 17.2
14:05 1017 30.03 846 24.98 8.8 47.8 28 -8.5 16.6
14:10 1017 30.03 846 24.98 8 46.4 30 -8.6 16.5
14:15 1016 30 846 24.98 7.4 45.3 30 -9.1 15.7
14:20 1016 30 846 24.98 8.4 47.1 30 -8.4 16.9
14:25 1016 30 846 24.98 8.8 47.9 29 -8.5 16.8
14:30 1016 30 846 24.98 8.5 47.2 30 -8.3 17
14:35 1016 30 845 24.95 9 48.1 28 -8.8 16.1
14:40 1016 30 845 24.95 9.1 48.4 28 -8.3 17.1
14:45 1016 30 845 24.95 9.7 49.4 27 -8.4 16.8
14:50 1016 30 845 24.95 9.5 49.1 28 -8.2 17.2
14:55 1016 30 845 24.95 9.8 49.6 27 -8.4 16.9
15:00 1016 30 845 24.95 9.8 49.6 27 -8.4 16.9
15:05 1016 30 845 24.95 9.9 49.7 26 -8.8 16.1
15:10 1016 30 845 24.95 10.2 50.3 26 -8.5 16.6
15:15 1016 30 845 24.95 9.9 49.8 26 -8.5 16.6
15:20 1016 30 845 24.95 9.8 49.7 26 -8.7 16.3
15:25 1016 30 845 24.95 10 49.9 27 -8.3 17.1
15:30 1016 30 845 24.95 10.3 50.5 26 -8.3 17
15:35 1016 30 845 24.95 10 50.1 26 -8.4 16.9
15:40 1016 30 845 24.95 10.2 50.4 26 -8.6 16.5
15:45 1016 30 845 24.95 10.2 50.3 26 -8.7 16.4
15:50 1016 30 845 24.95 10.2 50.4 26 -8.6 16.5
15:55 1016 30 845 24.95 10.6 51.1 25 -8.6 16.6
16:00 1016 30 845 24.95 10.5 50.9 25 -8.9 16.1
16:05 1016 30 845 24.95 9.3 48.7 27 -8.9 16
16:10 1016 30 845 24.95 10 50 24 -9.5 15
16:15 1016 30 845 24.95 9.7 49.5 25 -9.3 15.2
16:20 1016 30 845 24.95 10.3 50.5 23 -9.9 14.2
16:25 1016 30 845 24.95 10.6 51.1 23 -9.4 15
16:30 1016 30 845 24.95 10.5 50.9 24 -9.4 15.1
16:35 1016 30 845 24.95 10.8 51.5 24 -9.1 15.6
16:40 1016 30 845 24.95 11.1 52 23 -9.3 15.2
16:45 1015 29.97 845 24.95 11.1 52 23 -9.3 15.3
16:50 1015 29.97 845 24.95 11.1 51.9 24 -8.9 16
16:55 1015 29.97 845 24.95 11 51.9 23 -9.1 15.6
17:00 1015 29.97 845 24.95 11.1 51.9 24 -8.9 15.9
17:05 1015 29.97 844 24.92 11.1 51.9 22 -9.9 14.1
17:10 1015 29.97 844 24.92 11.5 52.8 21 -10.2 13.7
17:15 1015 29.97 844 24.92 11.7 53 21 -9.8 14.3
17:20 1015 29.97 844 24.92 11.5 52.7 21 -10.2 13.6
17:25 1015 29.97 844 24.92 11.2 52.1 21 -10.2 13.6
17:30 1015 29.97 844 24.92 11 51.8 21 -10.5 13.1
17:35 1015 29.97 844 24.92 11 51.8 22 -10.1 13.8
17:40 1015 29.97 844 24.92 11.2 52.2 19 -11.4 11.4
17:45 1015 29.97 844 24.92 11.1 52 19 -11.5 11.4
17:50 1015 29.97 844 24.92 11 51.9 19 -11.7 10.9
17:55 1015 29.97 844 24.92 10.9 51.6 19 -11.8 10.8
18:00 1015 29.97 844 24.92 10.9 51.6 19 -12 10.3
18:05 1015 29.97 844 24.92 10.9 51.6 19 -11.7 10.9
18:10 1015 29.97 844 24.92 10.7 51.3 21 -10.9 12.4
18:15 1015 29.97 845 24.95 10.5 50.8 23 -9.8 14.4
18:20 1015 29.97 845 24.95 10.2 50.3 23 -9.9 14.1
18:25 1015 29.97 845 24.95 10.3 50.6 23 -9.9 14.1
18:30 1015 29.97 845 24.95 10.5 50.9 23 -9.9 14.3
18:35 1016 30 845 24.95 10.1 50.1 23 -10.1 13.9
18:40 1016 30 845 24.95 9.9 49.9 23 -10.4 13.2
18:45 1016 30 845 24.95 9.8 49.6 23 -10.2 13.7
18:50 1016 30 845 24.95 9.4 48.9 24 -10.3 13.4
18:55 1016 30 845 24.95 9.2 48.6 24 -10.6 12.9
19:00 1016 30 845 24.95 9 48.3 24 -10.4 13.3
19:05 1016 30 845 24.95 8.9 47.9 24 -10.6 12.9
19:10 1016 30 845 24.95 8.6 47.5 25 -10.5 13
19:15 1016 30 845 24.95 8.6 47.5 24 -10.6 12.9
19:20 1016 30 845 24.95 8.5 47.4 25 -10.6 12.9
19:25 1016 30 845 24.95 8.4 47.2 25 -10.5 13
19:30 1016 30 845 24.95 8.2 46.8 26 -10.4 13.3
19:35 1016 30 845 24.95 8 46.4 26 -10.3 13.5
19:40 1016 30 845 24.95 7.8 46.1 26 -10.3 13.4
19:45 1016 30 845 24.95 7.7 45.9 26 -10.4 13.3
19:50 1016 30 845 24.95 7.6 45.7 26 -10.7 12.7
19:55 1016 30 845 24.95 7.6 45.6 26 -10.8 12.5
20:00 1016 30 845 24.95 7.5 45.5 26 -10.7 12.7
20:05 1016 30 845 24.95 7.4 45.3 27 -10.6 12.9
20:10 1016 30 846 24.98 7.3 45.1 27 -10.7 12.8
20:15 1016 30 846 24.98 7.1 44.8 27 -10.5 13
20:20 1016 30 846 24.98 7.1 44.7 28 -10.3 13.4
20:25 1016 30 846 24.98 7 44.5 28 -10.3 13.4
20:30 1017 30.03 846 24.98 6.3 43.4 33 -8.7 16.3
20:35 1017 30.03 846 24.98 5.1 41.1 34 -9.6 14.7
20:40 1017 30.03 846 24.98 5.7 42.3 31 -10.3 13.4
20:45 1017 30.03 846 24.98 6.2 43.2 30 -10.3 13.5
20:50 1017 30.03 846 24.98 5.7 42.3 33 -9.5 14.9
20:55 1016 30 846 24.98 4.8 40.7 38 -8.2 17.2
21:00 1017 30.03 846 24.98 4.2 39.6 41 -7.8 17.9
21:05 1017 30.03 846 24.98 4.1 39.5 42 -7.5 18.5
21:10 1016 30 846 24.98 4 39.2 43 -7.6 18.3
21:15 1017 30.03 846 24.98 4.1 39.4 43 -7.5 18.5
21:20 1016 30 846 24.98 3.8 38.8 46 -6.9 19.5
21:25 1017 30.03 846 24.98 3.6 38.4 45 -7.2 19.1
21:30 1017 30.03 846 24.98 3.6 38.5 45 -7.2 19.1
21:35 1017 30.03 846 24.98 3.6 38.5 46 -6.9 19.5
21:40 1017 30.03 846 24.98 3.6 38.5 45 -7.1 19.2
21:45 1017 30.03 846 24.98 3.5 38.3 47 -6.9 19.7
21:50 1017 30.03 846 24.98 3.4 38.1 48 -6.6 20
21:55 1017 30.03 846 24.98 3.4 38 45 -7.5 18.6
22:00 1017 30.03 846 24.98 3.6 38.4 44 -7.5 18.5
22:05 1017 30.03 846 24.98 3.7 38.6 45 -7.1 19.2
22:10 1017 30.03 846 24.98 3.5 38.4 44 -7.6 18.3
22:15 1017 30.03 846 24.98 3.5 38.3 45 -7.2 19
22:20 1017 30.03 846 24.98 3.6 38.4 44 -7.7 18.2
22:25 1017 30.03 846 24.98 3.5 38.3 44 -7.6 18.3
22:30 1017 30.03 846 24.98 3.4 38.2 46 -7.1 19.2
22:35 1017 30.03 846 24.98 3.6 38.5 45 -7.4 18.8
22:40 1017 30.03 846 24.98 3.7 38.7 47 -6.7 20
22:45 1017 30.03 846 24.98 3 37.5 51 -6.1 21
22:50 1017 30.03 847 25.01 2.5 36.5 53 -6.1 21.1
22:55 1017 30.03 847 25.01 2.5 36.6 50 -6.9 19.6
23:00 1017 30.03 847 25.01 3 37.5 45 -7.9 17.8
23:05 1017 30.03 847 25.01 3.5 38.3 43 -7.9 17.8
23:10 1017 30.03 847 25.01 3.5 38.2 46 -7.2 19.1
23:15 1017 30.03 847 25.01 3.2 37.7 48 -6.7 19.9
23:20 1017 30.03 846 24.98 2.4 36.4 52 -6.5 20.4
23:25 1017 30.03 846 24.98 2 35.5 52 -6.8 19.7
23:30 1017 30.03 846 24.98 2.1 35.8 51 -7.1 19.2
23:35 1017 30.03 847 25.01 2 35.7 52 -6.8 19.7
23:40 1017 30.03 847 25.01 1.9 35.5 52 -6.8 19.7
23:45 1017 30.03 847 25.01 1.9 35.4 48 -7.8 17.9
23:50 1017 30.03 847 25.01 2.5 36.4 46 -8 17.6
23:55 1017 30.03 847 25.01 2.8 37.1 43 -8.4 16.8
24:00 1017 30.03 847 25.01 3 37.4 44 -8.1 17.4